KRDU

Raleigh-Durham International Airport

Raleigh/Durham, North Carolina, USA
METAR KRDU 190251Z 00000KT 10SM SCT080 SCT250 23/22 A2991 RMK AO2 SLP124 T02280217 51013 $
Observed Flight Rules
Sep-19 @ 02:51 UTC (39 minutes ago) Visual Flight Rules
Visibility Clouds
10 miles
  • Scattered at 8,000' AGL
  • Scattered at 25,000' AGL
Temperatures Readings
Current 23°C / 73°F
Dewpoint 22°C / 72°F
Humidity 94%
Altimeter 29.91" Hg
Pressure 1012.4 hPa
Elevation 130
METAR KRDU 190251Z 00000KT 10SM SCT080 SCT250 23/22 A2991 RMK AO2 SLP124 T02280217 51013 $
Observed Flight Rules
Sep-19 @ 02:51 UTC
(39 minutes ago)
VFR
Clouds
  • Scattered at 8,000' AGL
  • Scattered at 25,000' AGL
Temperature Dewpoint
23°C / 73°F 22°C / 72°F
Humidity Altimeter Pressure
94% 29.91" Hg 1012.4 hPa